Terminal Aerodrome Forecast
Issued by NWS

Home | Current Version | Previous Version | Text Only | Print | Product List | Glossary On
Versions: 1 2 3 4 5 6 7 8 9 10 11 12 13 14
000
FTUS45 KRIW 191700
TAFCPR
TAF
KCPR 191721Z 1918/2018 21007KT P6SM SCT120 BKN200
     FM192000 10008KT P6SM VCTS SCT090CB OVC200
     FM200400 23009KT P6SM -SHRA SCT050 OVC080
     FM201500 24008KT P6SM VCSH SCT060 OVC090=

USA.gov is the U.S. government's official web portal to all federal, state and local government web resources and services.